sensor_id;sensor_type;location;lat;lon;timestamp;P1;durP1;ratioP1;P2;durP2;ratioP2
15679;SDS011;15488;48.114;11.532;2024-01-15T00:00:37;3.83;;;2.00;;
15679;SDS011;15488;48.114;11.532;2024-01-15T00:03:05;4.80;;;2.40;;
15679;SDS011;15488;48.114;11.532;2024-01-15T00:05:34;3.33;;;2.10;;
15679;SDS011;15488;48.114;11.532;2024-01-15T00:08:02;3.63;;;2.10;;
15679;SDS011;15488;48.114;11.532;2024-01-15T00:10:29;3.83;;;1.97;;
15679;SDS011;15488;48.114;11.532;2024-01-15T00:12:57;4.43;;;2.27;;
15679;SDS011;15488;48.114;11.532;2024-01-15T00:15:24;3.87;;;2.27;;
15679;SDS011;15488;48.114;11.532;2024-01-15T00:17:53;3.93;;;2.23;;
15679;SDS011;15488;48.114;11.532;2024-01-15T00:20:21;4.40;;;2.63;;
15679;SDS011;15488;48.114;11.532;2024-01-15T00:22:50;4.80;;;2.63;;
15679;SDS011;15488;48.114;11.532;2024-01-15T00:25:17;4.33;;;2.27;;
15679;SDS011;15488;48.114;11.532;2024-01-15T00:27:45;5.67;;;2.80;;
15679;SDS011;15488;48.114;11.532;2024-01-15T00:30:13;5.03;;;2.57;;
15679;SDS011;15488;48.114;11.532;2024-01-15T00:32:40;5.40;;;2.03;;
15679;SDS011;15488;48.114;11.532;2024-01-15T00:35:08;4.10;;;2.20;;
15679;SDS011;15488;48.114;11.532;2024-01-15T00:37:36;4.70;;;2.73;;
15679;SDS011;15488;48.114;11.532;2024-01-15T00:40:05;4.33;;;2.37;;
15679;SDS011;15488;48.114;11.532;2024-01-15T00:42:34;4.77;;;2.67;;
15679;SDS011;15488;48.114;11.532;2024-01-15T00:45:01;4.90;;;2.70;;
15679;SDS011;15488;48.114;11.532;2024-01-15T00:47:30;5.10;;;2.70;;
15679;SDS011;15488;48.114;11.532;2024-01-15T00:49:58;5.50;;;2.97;;
15679;SDS011;15488;48.114;11.532;2024-01-15T00:52:25;4.77;;;2.77;;
15679;SDS011;15488;48.114;11.532;2024-01-15T00:54:53;6.13;;;3.10;;
15679;SDS011;15488;48.114;11.532;2024-01-15T00:57:22;4.83;;;2.93;;
15679;SDS011;15488;48.114;11.532;2024-01-15T00:59:49;5.87;;;2.97;;
15679;SDS011;15488;48.114;11.532;2024-01-15T01:02:17;6.43;;;3.10;;
15679;SDS011;15488;48.114;11.532;2024-01-15T01:04:44;4.60;;;2.80;;
15679;SDS011;15488;48.114;11.532;2024-01-15T01:07:12;6.27;;;3.13;;
15679;SDS011;15488;48.114;11.532;2024-01-15T01:09:39;7.60;;;3.17;;
15679;SDS011;15488;48.114;11.532;2024-01-15T01:12:07;4.97;;;2.83;;
15679;SDS011;15488;48.114;11.532;2024-01-15T01:14:36;6.03;;;3.00;;
15679;SDS011;15488;48.114;11.532;2024-01-15T01:17:03;5.97;;;3.40;;
15679;SDS011;15488;48.114;11.532;2024-01-15T01:19:31;6.33;;;3.57;;
15679;SDS011;15488;48.114;11.532;2024-01-15T01:21:58;8.87;;;4.07;;
15679;SDS011;15488;48.114;11.532;2024-01-15T01:24:26;8.57;;;4.10;;
15679;SDS011;15488;48.114;11.532;2024-01-15T01:26:54;8.40;;;4.13;;
15679;SDS011;15488;48.114;11.532;2024-01-15T01:29:21;7.70;;;4.13;;
15679;SDS011;15488;48.114;11.532;2024-01-15T01:31:50;8.43;;;4.10;;
15679;SDS011;15488;48.114;11.532;2024-01-15T01:34:18;8.63;;;4.20;;
15679;SDS011;15488;48.114;11.532;2024-01-15T01:36:45;7.93;;;3.97;;
15679;SDS011;15488;48.114;11.532;2024-01-15T01:39:13;8.80;;;4.50;;
15679;SDS011;15488;48.114;11.532;2024-01-15T01:41:40;7.50;;;4.43;;
15679;SDS011;15488;48.114;11.532;2024-01-15T01:44:08;7.27;;;3.83;;
15679;SDS011;15488;48.114;11.532;2024-01-15T01:46:36;8.33;;;4.07;;
15679;SDS011;15488;48.114;11.532;2024-01-15T01:49:06;7.60;;;4.27;;
15679;SDS011;15488;48.114;11.532;2024-01-15T01:51:35;8.97;;;4.23;;
15679;SDS011;15488;48.114;11.532;2024-01-15T01:54:04;8.23;;;3.87;;
15679;SDS011;15488;48.114;11.532;2024-01-15T01:56:34;8.13;;;3.87;;
15679;SDS011;15488;48.114;11.532;2024-01-15T01:59:02;8.33;;;4.30;;
15679;SDS011;15488;48.114;11.532;2024-01-15T02:01:31;7.07;;;4.00;;
15679;SDS011;15488;48.114;11.532;2024-01-15T02:03:59;6.43;;;3.60;;
15679;SDS011;15488;48.114;11.532;2024-01-15T02:06:29;6.90;;;3.70;;
15679;SDS011;15488;48.114;11.532;2024-01-15T02:08:57;6.70;;;3.50;;
15679;SDS011;15488;48.114;11.532;2024-01-15T02:11:24;7.93;;;3.80;;
15679;SDS011;15488;48.114;11.532;2024-01-15T02:13:52;8.43;;;3.70;;
15679;SDS011;15488;48.114;11.532;2024-01-15T02:16:20;7.70;;;3.93;;
15679;SDS011;15488;48.114;11.532;2024-01-15T02:18:47;6.80;;;3.90;;
15679;SDS011;15488;48.114;11.532;2024-01-15T02:21:15;7.33;;;3.63;;
15679;SDS011;15488;48.114;11.532;2024-01-15T02:23:44;8.50;;;4.20;;
15679;SDS011;15488;48.114;11.532;2024-01-15T02:26:11;7.23;;;4.00;;
15679;SDS011;15488;48.114;11.532;2024-01-15T02:28:40;7.00;;;4.00;;
15679;SDS011;15488;48.114;11.532;2024-01-15T02:31:09;7.10;;;3.90;;
15679;SDS011;15488;48.114;11.532;2024-01-15T02:33:37;7.27;;;4.27;;
15679;SDS011;15488;48.114;11.532;2024-01-15T02:36:04;5.60;;;3.77;;
15679;SDS011;15488;48.114;11.532;2024-01-15T02:38:33;6.80;;;4.07;;
15679;SDS011;15488;48.114;11.532;2024-01-15T02:41:01;7.50;;;4.20;;
15679;SDS011;15488;48.114;11.532;2024-01-15T02:43:29;7.73;;;3.87;;
15679;SDS011;15488;48.114;11.532;2024-01-15T02:45:57;7.00;;;3.83;;
15679;SDS011;15488;48.114;11.532;2024-01-15T02:48:24;7.27;;;4.00;;
15679;SDS011;15488;48.114;11.532;2024-01-15T02:50:51;6.83;;;3.77;;
15679;SDS011;15488;48.114;11.532;2024-01-15T02:53:18;7.40;;;3.80;;
15679;SDS011;15488;48.114;11.532;2024-01-15T02:55:46;6.57;;;3.80;;
15679;SDS011;15488;48.114;11.532;2024-01-15T02:58:15;8.53;;;3.93;;
15679;SDS011;15488;48.114;11.532;2024-01-15T03:00:43;8.13;;;4.30;;
15679;SDS011;15488;48.114;11.532;2024-01-15T03:03:11;7.23;;;3.57;;
15679;SDS011;15488;48.114;11.532;2024-01-15T03:05:39;7.80;;;4.07;;
15679;SDS011;15488;48.114;11.532;2024-01-15T03:08:06;7.13;;;3.70;;
15679;SDS011;15488;48.114;11.532;2024-01-15T03:10:36;6.37;;;3.40;;
15679;SDS011;15488;48.114;11.532;2024-01-15T03:13:03;6.47;;;3.97;;
15679;SDS011;15488;48.114;11.532;2024-01-15T03:15:32;10.17;;;4.13;;
15679;SDS011;15488;48.114;11.532;2024-01-15T03:18:00;7.70;;;4.20;;
15679;SDS011;15488;48.114;11.532;2024-01-15T03:20:27;6.73;;;3.97;;
15679;SDS011;15488;48.114;11.532;2024-01-15T03:22:55;7.53;;;3.80;;
15679;SDS011;15488;48.114;11.532;2024-01-15T03:25:22;6.47;;;3.83;;
15679;SDS011;15488;48.114;11.532;2024-01-15T03:27:50;6.07;;;3.27;;
15679;SDS011;15488;48.114;11.532;2024-01-15T03:30:17;5.73;;;3.20;;
15679;SDS011;15488;48.114;11.532;2024-01-15T03:32:46;6.70;;;3.70;;
15679;SDS011;15488;48.114;11.532;2024-01-15T03:35:15;6.07;;;3.23;;
15679;SDS011;15488;48.114;11.532;2024-01-15T03:37:42;5.73;;;3.03;;
15679;SDS011;15488;48.114;11.532;2024-01-15T03:40:10;5.43;;;3.27;;
15679;SDS011;15488;48.114;11.532;2024-01-15T03:42:38;6.13;;;3.33;;
15679;SDS011;15488;48.114;11.532;2024-01-15T03:45:06;5.73;;;2.97;;
15679;SDS011;15488;48.114;11.532;2024-01-15T03:47:34;5.63;;;3.20;;
15679;SDS011;15488;48.114;11.532;2024-01-15T03:50:03;5.00;;;3.00;;
15679;SDS011;15488;48.114;11.532;2024-01-15T03:52:31;4.93;;;3.10;;
15679;SDS011;15488;48.114;11.532;2024-01-15T03:54:59;5.63;;;3.23;;
15679;SDS011;15488;48.114;11.532;2024-01-15T03:57:26;5.57;;;3.07;;
15679;SDS011;15488;48.114;11.532;2024-01-15T03:59:54;5.87;;;3.23;;
15679;SDS011;15488;48.114;11.532;2024-01-15T04:02:21;5.90;;;3.20;;
15679;SDS011;15488;48.114;11.532;2024-01-15T04:04:49;6.57;;;3.60;;
15679;SDS011;15488;48.114;11.532;2024-01-15T04:07:18;7.97;;;3.43;;
15679;SDS011;15488;48.114;11.532;2024-01-15T04:09:45;5.93;;;3.40;;
15679;SDS011;15488;48.114;11.532;2024-01-15T04:12:13;6.77;;;3.20;;
15679;SDS011;15488;48.114;11.532;2024-01-15T04:14:40;5.37;;;3.27;;
15679;SDS011;15488;48.114;11.532;2024-01-15T04:17:08;6.97;;;3.37;;
15679;SDS011;15488;48.114;11.532;2024-01-15T04:19:35;5.77;;;3.27;;
15679;SDS011;15488;48.114;11.532;2024-01-15T04:22:03;6.10;;;3.33;;
15679;SDS011;15488;48.114;11.532;2024-01-15T04:24:32;5.53;;;3.40;;
15679;SDS011;15488;48.114;11.532;2024-01-15T04:27:00;6.40;;;3.50;;
15679;SDS011;15488;48.114;11.532;2024-01-15T04:29:27;7.33;;;3.43;;
15679;SDS011;15488;48.114;11.532;2024-01-15T04:31:55;6.53;;;3.07;;
15679;SDS011;15488;48.114;11.532;2024-01-15T04:34:22;5.53;;;3.10;;
15679;SDS011;15488;48.114;11.532;2024-01-15T04:36:50;6.07;;;3.00;;
15679;SDS011;15488;48.114;11.532;2024-01-15T04:39:17;5.10;;;2.77;;
15679;SDS011;15488;48.114;11.532;2024-01-15T04:41:46;6.70;;;3.13;;
15679;SDS011;15488;48.114;11.532;2024-01-15T04:44:14;5.23;;;2.90;;
15679;SDS011;15488;48.114;11.532;2024-01-15T04:46:41;5.10;;;2.73;;
15679;SDS011;15488;48.114;11.532;2024-01-15T04:49:10;5.57;;;3.10;;
15679;SDS011;15488;48.114;11.532;2024-01-15T04:51:37;5.97;;;3.07;;
15679;SDS011;15488;48.114;11.532;2024-01-15T04:54:05;4.67;;;2.50;;
15679;SDS011;15488;48.114;11.532;2024-01-15T04:56:33;4.93;;;2.70;;
15679;SDS011;15488;48.114;11.532;2024-01-15T04:59:01;4.27;;;2.50;;
15679;SDS011;15488;48.114;11.532;2024-01-15T05:01:30;4.97;;;2.53;;
15679;SDS011;15488;48.114;11.532;2024-01-15T05:03:58;5.80;;;2.57;;
15679;SDS011;15488;48.114;11.532;2024-01-15T05:06:26;6.67;;;2.87;;
15679;SDS011;15488;48.114;11.532;2024-01-15T05:08:53;4.70;;;2.60;;
15679;SDS011;15488;48.114;11.532;2024-01-15T05:11:21;4.27;;;2.63;;
15679;SDS011;15488;48.114;11.532;2024-01-15T05:13:48;4.27;;;2.10;;
15679;SDS011;15488;48.114;11.532;2024-01-15T05:16:17;4.23;;;2.40;;
15679;SDS011;15488;48.114;11.532;2024-01-15T05:18:45;6.00;;;2.90;;
15679;SDS011;15488;48.114;11.532;2024-01-15T05:21:12;3.90;;;2.37;;
15679;SDS011;15488;48.114;11.532;2024-01-15T05:23:40;4.70;;;2.20;;
15679;SDS011;15488;48.114;11.532;2024-01-15T05:26:07;4.80;;;2.53;;
15679;SDS011;15488;48.114;11.532;2024-01-15T05:28:35;3.43;;;2.30;;
15679;SDS011;15488;48.114;11.532;2024-01-15T05:31:03;3.90;;;2.27;;
15679;SDS011;15488;48.114;11.532;2024-01-15T05:33:32;4.93;;;2.53;;
15679;SDS011;15488;48.114;11.532;2024-01-15T05:36:02;3.57;;;2.40;;
15679;SDS011;15488;48.114;11.532;2024-01-15T05:38:30;4.27;;;2.57;;
15679;SDS011;15488;48.114;11.532;2024-01-15T05:40:58;4.57;;;2.50;;
15679;SDS011;15488;48.114;11.532;2024-01-15T05:43:25;3.27;;;2.20;;
15679;SDS011;15488;48.114;11.532;2024-01-15T05:45:53;3.30;;;1.97;;
15679;SDS011;15488;48.114;11.532;2024-01-15T05:48:20;4.80;;;2.53;;
15679;SDS011;15488;48.114;11.532;2024-01-15T05:50:49;5.00;;;2.40;;
15679;SDS011;15488;48.114;11.532;2024-01-15T05:53:17;4.40;;;2.20;;
15679;SDS011;15488;48.114;11.532;2024-01-15T05:55:44;5.00;;;2.70;;
15679;SDS011;15488;48.114;11.532;2024-01-15T05:58:12;6.00;;;2.63;;
15679;SDS011;15488;48.114;11.532;2024-01-15T06:00:39;7.20;;;2.67;;
15679;SDS011;15488;48.114;11.532;2024-01-15T06:03:07;4.23;;;2.30;;
15679;SDS011;15488;48.114;11.532;2024-01-15T06:05:35;14.43;;;6.80;;
15679;SDS011;15488;48.114;11.532;2024-01-15T06:08:04;4.97;;;2.73;;
15679;SDS011;15488;48.114;11.532;2024-01-15T06:10:31;4.10;;;2.53;;
15679;SDS011;15488;48.114;11.532;2024-01-15T06:12:59;5.23;;;2.80;;
15679;SDS011;15488;48.114;11.532;2024-01-15T06:15:26;4.83;;;2.53;;
15679;SDS011;15488;48.114;11.532;2024-01-15T06:17:54;3.77;;;2.20;;
15679;SDS011;15488;48.114;11.532;2024-01-15T06:20:22;4.30;;;2.63;;
15679;SDS011;15488;48.114;11.532;2024-01-15T06:22:49;4.53;;;2.50;;
15679;SDS011;15488;48.114;11.532;2024-01-15T06:25:18;4.57;;;2.60;;
15679;SDS011;15488;48.114;11.532;2024-01-15T06:27:45;4.77;;;2.67;;
15679;SDS011;15488;48.114;11.532;2024-01-15T06:30:13;4.40;;;2.17;;
15679;SDS011;15488;48.114;11.532;2024-01-15T06:32:41;5.60;;;2.70;;
15679;SDS011;15488;48.114;11.532;2024-01-15T06:35:09;3.80;;;2.40;;
15679;SDS011;15488;48.114;11.532;2024-01-15T06:37:36;5.10;;;2.57;;
15679;SDS011;15488;48.114;11.532;2024-01-15T06:40:04;4.30;;;2.33;;
15679;SDS011;15488;48.114;11.532;2024-01-15T06:42:34;3.93;;;2.60;;
15679;SDS011;15488;48.114;11.532;2024-01-15T06:45:02;6.03;;;2.73;;
15679;SDS011;15488;48.114;11.532;2024-01-15T06:47:30;4.47;;;2.40;;
15679;SDS011;15488;48.114;11.532;2024-01-15T06:49:58;4.67;;;2.50;;
15679;SDS011;15488;48.114;11.532;2024-01-15T06:52:30;4.23;;;2.63;;
15679;SDS011;15488;48.114;11.532;2024-01-15T06:54:57;4.80;;;2.60;;
15679;SDS011;15488;48.114;11.532;2024-01-15T06:57:25;5.07;;;2.90;;
15679;SDS011;15488;48.114;11.532;2024-01-15T06:59:54;4.30;;;2.43;;
15679;SDS011;15488;48.114;11.532;2024-01-15T07:02:22;5.73;;;2.70;;
15679;SDS011;15488;48.114;11.532;2024-01-15T07:04:49;5.17;;;2.50;;
15679;SDS011;15488;48.114;11.532;2024-01-15T07:07:17;4.40;;;2.30;;
15679;SDS011;15488;48.114;11.532;2024-01-15T07:09:44;5.30;;;2.70;;
15679;SDS011;15488;48.114;11.532;2024-01-15T07:12:12;5.47;;;2.80;;
15679;SDS011;15488;48.114;11.532;2024-01-15T07:14:39;5.60;;;2.80;;
15679;SDS011;15488;48.114;11.532;2024-01-15T07:17:08;3.87;;;2.43;;
15679;SDS011;15488;48.114;11.532;2024-01-15T07:19:36;3.83;;;2.40;;
15679;SDS011;15488;48.114;11.532;2024-01-15T07:22:03;4.97;;;2.50;;
15679;SDS011;15488;48.114;11.532;2024-01-15T07:24:31;4.53;;;2.40;;
15679;SDS011;15488;48.114;11.532;2024-01-15T07:27:00;4.37;;;2.53;;
15679;SDS011;15488;48.114;11.532;2024-01-15T07:29:29;5.73;;;2.63;;
15679;SDS011;15488;48.114;11.532;2024-01-15T07:31:58;6.43;;;2.73;;
15679;SDS011;15488;48.114;11.532;2024-01-15T07:34:27;4.47;;;2.40;;
15679;SDS011;15488;48.114;11.532;2024-01-15T07:36:54;5.00;;;2.77;;
15679;SDS011;15488;48.114;11.532;2024-01-15T07:39:23;4.47;;;2.50;;
15679;SDS011;15488;48.114;11.532;2024-01-15T07:41:51;5.83;;;2.67;;
15679;SDS011;15488;48.114;11.532;2024-01-15T07:44:18;4.50;;;2.63;;
15679;SDS011;15488;48.114;11.532;2024-01-15T07:46:46;4.37;;;2.47;;
15679;SDS011;15488;48.114;11.532;2024-01-15T07:49:14;5.63;;;2.67;;
15679;SDS011;15488;48.114;11.532;2024-01-15T07:51:43;5.20;;;2.80;;
15679;SDS011;15488;48.114;11.532;2024-01-15T07:54:10;5.53;;;2.80;;
15679;SDS011;15488;48.114;11.532;2024-01-15T07:56:52;4.27;;;2.63;;
15679;SDS011;15488;48.114;11.532;2024-01-15T07:59:21;5.10;;;2.70;;
15679;SDS011;15488;48.114;11.532;2024-01-15T08:01:48;4.93;;;3.00;;
15679;SDS011;15488;48.114;11.532;2024-01-15T08:04:16;4.97;;;2.80;;
15679;SDS011;15488;48.114;11.532;2024-01-15T08:06:45;5.70;;;3.10;;
15679;SDS011;15488;48.114;11.532;2024-01-15T08:09:13;6.53;;;2.60;;
15679;SDS011;15488;48.114;11.532;2024-01-15T08:11:41;5.40;;;3.13;;
15679;SDS011;15488;48.114;11.532;2024-01-15T08:14:09;5.17;;;2.73;;
15679;SDS011;15488;48.114;11.532;2024-01-15T08:16:37;4.90;;;2.83;;
15679;SDS011;15488;48.114;11.532;2024-01-15T08:19:05;4.17;;;2.70;;
15679;SDS011;15488;48.114;11.532;2024-01-15T08:21:33;4.47;;;2.73;;
15679;SDS011;15488;48.114;11.532;2024-01-15T08:24:02;5.47;;;2.90;;
15679;SDS011;15488;48.114;11.532;2024-01-15T08:26:30;7.67;;;3.00;;
15679;SDS011;15488;48.114;11.532;2024-01-15T08:28:58;5.43;;;2.80;;
15679;SDS011;15488;48.114;11.532;2024-01-15T08:31:26;5.27;;;2.90;;
15679;SDS011;15488;48.114;11.532;2024-01-15T08:33:53;4.23;;;2.47;;
15679;SDS011;15488;48.114;11.532;2024-01-15T08:36:21;5.57;;;2.60;;
15679;SDS011;15488;48.114;11.532;2024-01-15T08:38:49;5.63;;;2.77;;
15679;SDS011;15488;48.114;11.532;2024-01-15T08:41:18;4.57;;;2.40;;
15679;SDS011;15488;48.114;11.532;2024-01-15T08:43:45;5.50;;;2.80;;
15679;SDS011;15488;48.114;11.532;2024-01-15T08:46:13;4.40;;;2.37;;
15679;SDS011;15488;48.114;11.532;2024-01-15T08:48:41;5.70;;;2.97;;
15679;SDS011;15488;48.114;11.532;2024-01-15T08:51:08;4.97;;;3.03;;
15679;SDS011;15488;48.114;11.532;2024-01-15T08:53:36;5.03;;;3.10;;
15679;SDS011;15488;48.114;11.532;2024-01-15T08:56:04;8.20;;;3.10;;
15679;SDS011;15488;48.114;11.532;2024-01-15T08:58:34;4.47;;;2.53;;
15679;SDS011;15488;48.114;11.532;2024-01-15T09:01:02;4.70;;;2.70;;
15679;SDS011;15488;48.114;11.532;2024-01-15T09:03:30;4.80;;;2.40;;
15679;SDS011;15488;48.114;11.532;2024-01-15T09:05:59;4.87;;;2.50;;
15679;SDS011;15488;48.114;11.532;2024-01-15T09:08:26;4.80;;;2.80;;
15679;SDS011;15488;48.114;11.532;2024-01-15T09:10:54;5.80;;;2.93;;
15679;SDS011;15488;48.114;11.532;2024-01-15T09:13:21;4.97;;;2.47;;
15679;SDS011;15488;48.114;11.532;2024-01-15T09:15:53;5.07;;;2.77;;
15679;SDS011;15488;48.114;11.532;2024-01-15T09:18:21;5.23;;;2.53;;
15679;SDS011;15488;48.114;11.532;2024-01-15T09:20:49;6.07;;;2.67;;
15679;SDS011;15488;48.114;11.532;2024-01-15T09:23:16;4.83;;;2.80;;
15679;SDS011;15488;48.114;11.532;2024-01-15T09:25:44;4.47;;;2.70;;
15679;SDS011;15488;48.114;11.532;2024-01-15T09:28:13;4.23;;;2.37;;
15679;SDS011;15488;48.114;11.532;2024-01-15T09:30:40;4.83;;;2.47;;
15679;SDS011;15488;48.114;11.532;2024-01-15T09:33:09;5.10;;;2.30;;
15679;SDS011;15488;48.114;11.532;2024-01-15T09:35:37;5.13;;;2.80;;
15679;SDS011;15488;48.114;11.532;2024-01-15T09:38:04;5.40;;;2.80;;
15679;SDS011;15488;48.114;11.532;2024-01-15T09:40:32;4.00;;;2.23;;
15679;SDS011;15488;48.114;11.532;2024-01-15T09:43:00;3.77;;;2.17;;
15679;SDS011;15488;48.114;11.532;2024-01-15T09:45:29;4.80;;;2.67;;
15679;SDS011;15488;48.114;11.532;2024-01-15T09:47:56;4.23;;;2.33;;
15679;SDS011;15488;48.114;11.532;2024-01-15T09:50:25;4.00;;;2.47;;
15679;SDS011;15488;48.114;11.532;2024-01-15T09:52:53;4.47;;;2.30;;
15679;SDS011;15488;48.114;11.532;2024-01-15T09:55:22;4.20;;;2.23;;
15679;SDS011;15488;48.114;11.532;2024-01-15T09:57:50;3.90;;;2.00;;
15679;SDS011;15488;48.114;11.532;2024-01-15T10:00:18;2.90;;;1.90;;
15679;SDS011;15488;48.114;11.532;2024-01-15T10:02:47;3.77;;;2.27;;
15679;SDS011;15488;48.114;11.532;2024-01-15T10:05:14;4.70;;;2.50;;
15679;SDS011;15488;48.114;11.532;2024-01-15T10:07:43;4.43;;;2.13;;
15679;SDS011;15488;48.114;11.532;2024-01-15T10:10:15;3.50;;;2.13;;
15679;SDS011;15488;48.114;11.532;2024-01-15T10:12:42;3.93;;;1.87;;
15679;SDS011;15488;48.114;11.532;2024-01-15T10:15:10;2.47;;;1.70;;
15679;SDS011;15488;48.114;11.532;2024-01-15T10:17:38;4.53;;;1.97;;
15679;SDS011;15488;48.114;11.532;2024-01-15T10:20:07;3.33;;;1.90;;
15679;SDS011;15488;48.114;11.532;2024-01-15T10:22:38;4.33;;;1.90;;
15679;SDS011;15488;48.114;11.532;2024-01-15T10:25:08;3.43;;;1.90;;
15679;SDS011;15488;48.114;11.532;2024-01-15T10:27:37;4.83;;;1.87;;
15679;SDS011;15488;48.114;11.532;2024-01-15T10:30:06;3.53;;;1.87;;
15679;SDS011;15488;48.114;11.532;2024-01-15T10:32:35;3.17;;;2.00;;
15679;SDS011;15488;48.114;11.532;2024-01-15T10:35:03;2.40;;;1.63;;
15679;SDS011;15488;48.114;11.532;2024-01-15T10:37:33;3.07;;;1.80;;
15679;SDS011;15488;48.114;11.532;2024-01-15T10:40:01;2.60;;;1.57;;
15679;SDS011;15488;48.114;11.532;2024-01-15T10:42:32;2.83;;;1.70;;
15679;SDS011;15488;48.114;11.532;2024-01-15T10:45:00;3.37;;;1.70;;
15679;SDS011;15488;48.114;11.532;2024-01-15T10:47:30;2.80;;;1.57;;
15679;SDS011;15488;48.114;11.532;2024-01-15T10:49:57;3.73;;;1.67;;
15679;SDS011;15488;48.114;11.532;2024-01-15T10:52:25;3.50;;;1.47;;
15679;SDS011;15488;48.114;11.532;2024-01-15T10:54:54;2.87;;;1.47;;
15679;SDS011;15488;48.114;11.532;2024-01-15T10:57:22;3.07;;;1.70;;
15679;SDS011;15488;48.114;11.532;2024-01-15T10:59:53;3.23;;;1.63;;
15679;SDS011;15488;48.114;11.532;2024-01-15T11:02:21;2.40;;;1.50;;
15679;SDS011;15488;48.114;11.532;2024-01-15T11:04:49;2.73;;;1.80;;
15679;SDS011;15488;48.114;11.532;2024-01-15T11:07:16;2.90;;;1.70;;
15679;SDS011;15488;48.114;11.532;2024-01-15T11:09:47;2.87;;;1.67;;
15679;SDS011;15488;48.114;11.532;2024-01-15T11:12:17;3.00;;;1.40;;
15679;SDS011;15488;48.114;11.532;2024-01-15T11:14:45;3.43;;;1.77;;
15679;SDS011;15488;48.114;11.532;2024-01-15T11:17:15;3.03;;;1.40;;
15679;SDS011;15488;48.114;11.532;2024-01-15T11:19:44;3.07;;;1.50;;
15679;SDS011;15488;48.114;11.532;2024-01-15T11:25:14;2.80;;;1.50;;
15679;SDS011;15488;48.114;11.532;2024-01-15T11:27:44;2.27;;;1.30;;
15679;SDS011;15488;48.114;11.532;2024-01-15T11:30:16;2.50;;;1.47;;
15679;SDS011;15488;48.114;11.532;2024-01-15T11:32:46;2.23;;;1.43;;
15679;SDS011;15488;48.114;11.532;2024-01-15T11:35:14;2.30;;;1.50;;
15679;SDS011;15488;48.114;11.532;2024-01-15T11:37:56;3.30;;;1.37;;
15679;SDS011;15488;48.114;11.532;2024-01-15T11:40:37;2.83;;;1.47;;
15679;SDS011;15488;48.114;11.532;2024-01-15T11:43:07;2.17;;;1.30;;
15679;SDS011;15488;48.114;11.532;2024-01-15T11:45:35;2.57;;;1.20;;
15679;SDS011;15488;48.114;11.532;2024-01-15T11:48:10;3.03;;;1.37;;
15679;SDS011;15488;48.114;11.532;2024-01-15T11:50:39;2.67;;;1.50;;
15679;SDS011;15488;48.114;11.532;2024-01-15T11:53:12;3.43;;;1.30;;
15679;SDS011;15488;48.114;11.532;2024-01-15T11:55:44;1.60;;;1.13;;
15679;SDS011;15488;48.114;11.532;2024-01-15T11:58:13;3.07;;;1.60;;
15679;SDS011;15488;48.114;11.532;2024-01-15T12:00:43;2.73;;;1.30;;
15679;SDS011;15488;48.114;11.532;2024-01-15T12:03:12;2.00;;;1.23;;
15679;SDS011;15488;48.114;11.532;2024-01-15T12:05:40;2.67;;;1.33;;
15679;SDS011;15488;48.114;11.532;2024-01-15T12:08:08;3.13;;;1.47;;
15679;SDS011;15488;48.114;11.532;2024-01-15T12:10:36;1.77;;;1.27;;
15679;SDS011;15488;48.114;11.532;2024-01-15T12:13:06;3.60;;;1.33;;
15679;SDS011;15488;48.114;11.532;2024-01-15T12:15:38;2.30;;;1.10;;
15679;SDS011;15488;48.114;11.532;2024-01-15T12:18:07;2.07;;;1.10;;
15679;SDS011;15488;48.114;11.532;2024-01-15T12:20:37;1.97;;;1.27;;
15679;SDS011;15488;48.114;11.532;2024-01-15T12:23:05;2.00;;;1.00;;
15679;SDS011;15488;48.114;11.532;2024-01-15T12:25:33;5.00;;;2.23;;
15679;SDS011;15488;48.114;11.532;2024-01-15T12:28:01;2.80;;;1.40;;
15679;SDS011;15488;48.114;11.532;2024-01-15T12:30:29;3.40;;;1.43;;
15679;SDS011;15488;48.114;11.532;2024-01-15T12:33:01;3.37;;;1.13;;
15679;SDS011;15488;48.114;11.532;2024-01-15T12:35:30;2.77;;;1.20;;
15679;SDS011;15488;48.114;11.532;2024-01-15T12:37:59;1.90;;;1.30;;
15679;SDS011;15488;48.114;11.532;2024-01-15T12:40:28;2.43;;;1.20;;
15679;SDS011;15488;48.114;11.532;2024-01-15T12:42:57;2.77;;;1.20;;
15679;SDS011;15488;48.114;11.532;2024-01-15T12:45:24;2.30;;;1.30;;
15679;SDS011;15488;48.114;11.532;2024-01-15T12:47:52;2.73;;;1.33;;
15679;SDS011;15488;48.114;11.532;2024-01-15T12:50:23;4.37;;;1.20;;
15679;SDS011;15488;48.114;11.532;2024-01-15T12:52:51;2.27;;;1.20;;
15679;SDS011;15488;48.114;11.532;2024-01-15T12:55:20;2.63;;;1.50;;
15679;SDS011;15488;48.114;11.532;2024-01-15T12:57:49;2.47;;;1.30;;
15679;SDS011;15488;48.114;11.532;2024-01-15T13:00:19;2.00;;;1.23;;
15679;SDS011;15488;48.114;11.532;2024-01-15T13:02:47;2.50;;;1.23;;
15679;SDS011;15488;48.114;11.532;2024-01-15T13:05:14;2.97;;;1.43;;
15679;SDS011;15488;48.114;11.532;2024-01-15T13:07:43;3.23;;;1.20;;
15679;SDS011;15488;48.114;11.532;2024-01-15T13:10:11;2.00;;;1.23;;
15679;SDS011;15488;48.114;11.532;2024-01-15T13:12:40;1.83;;;1.00;;
15679;SDS011;15488;48.114;11.532;2024-01-15T13:15:08;2.50;;;1.37;;
15679;SDS011;15488;48.114;11.532;2024-01-15T13:17:37;1.63;;;1.23;;
15679;SDS011;15488;48.114;11.532;2024-01-15T13:20:05;2.00;;;1.33;;
15679;SDS011;15488;48.114;11.532;2024-01-15T13:22:36;1.47;;;1.17;;
15679;SDS011;15488;48.114;11.532;2024-01-15T13:25:05;2.10;;;1.20;;
15679;SDS011;15488;48.114;11.532;2024-01-15T13:27:33;1.40;;;1.10;;
15679;SDS011;15488;48.114;11.532;2024-01-15T13:30:03;2.13;;;1.43;;
15679;SDS011;15488;48.114;11.532;2024-01-15T13:32:32;3.23;;;1.33;;
15679;SDS011;15488;48.114;11.532;2024-01-15T13:34:59;2.30;;;1.40;;
15679;SDS011;15488;48.114;11.532;2024-01-15T13:37:27;2.17;;;1.30;;
15679;SDS011;15488;48.114;11.532;2024-01-15T13:39:55;3.40;;;1.70;;
15679;SDS011;15488;48.114;11.532;2024-01-15T13:42:24;2.50;;;1.43;;
15679;SDS011;15488;48.114;11.532;2024-01-15T13:44:52;2.90;;;1.53;;
15679;SDS011;15488;48.114;11.532;2024-01-15T13:47:21;1.80;;;1.40;;
15679;SDS011;15488;48.114;11.532;2024-01-15T13:49:49;3.00;;;1.43;;
15679;SDS011;15488;48.114;11.532;2024-01-15T13:52:16;2.57;;;1.50;;
15679;SDS011;15488;48.114;11.532;2024-01-15T13:54:44;4.27;;;1.67;;
15679;SDS011;15488;48.114;11.532;2024-01-15T13:57:11;2.97;;;1.70;;
15679;SDS011;15488;48.114;11.532;2024-01-15T13:59:39;3.27;;;1.63;;
15679;SDS011;15488;48.114;11.532;2024-01-15T14:02:06;2.33;;;1.30;;
15679;SDS011;15488;48.114;11.532;2024-01-15T14:04:36;3.83;;;1.70;;
15679;SDS011;15488;48.114;11.532;2024-01-15T14:07:04;3.10;;;1.80;;
15679;SDS011;15488;48.114;11.532;2024-01-15T14:09:32;2.07;;;1.30;;
15679;SDS011;15488;48.114;11.532;2024-01-15T14:12:00;6.13;;;2.43;;
15679;SDS011;15488;48.114;11.532;2024-01-15T14:14:27;2.90;;;1.30;;
15679;SDS011;15488;48.114;11.532;2024-01-15T14:16:55;2.70;;;1.70;;
15679;SDS011;15488;48.114;11.532;2024-01-15T14:19:22;2.80;;;1.57;;
15679;SDS011;15488;48.114;11.532;2024-01-15T14:21:51;2.80;;;1.77;;
15679;SDS011;15488;48.114;11.532;2024-01-15T14:24:19;3.10;;;1.77;;
15679;SDS011;15488;48.114;11.532;2024-01-15T14:26:46;2.73;;;1.50;;
15679;SDS011;15488;48.114;11.532;2024-01-15T14:29:14;2.60;;;1.53;;
15679;SDS011;15488;48.114;11.532;2024-01-15T14:31:43;2.87;;;1.60;;
15679;SDS011;15488;48.114;11.532;2024-01-15T14:34:11;1.87;;;1.30;;
15679;SDS011;15488;48.114;11.532;2024-01-15T14:36:38;2.63;;;1.50;;
15679;SDS011;15488;48.114;11.532;2024-01-15T14:39:07;2.80;;;1.37;;
15679;SDS011;15488;48.114;11.532;2024-01-15T14:41:35;4.53;;;1.60;;